createdAt,value
2019-02-05T00:02:09.707Z,-1.30
2019-02-05T00:04:40.243Z,-1.40
2019-02-05T00:07:10.907Z,-1.40
2019-02-05T00:09:44.151Z,-1.30
2019-02-05T00:12:14.679Z,-1.40
2019-02-05T00:14:45.248Z,-1.40
2019-02-05T00:17:15.845Z,-1.40
2019-02-05T00:19:48.034Z,-1.30
2019-02-05T00:22:18.879Z,-1.30
2019-02-05T00:24:49.555Z,-1.30
2019-02-05T00:27:21.225Z,-1.30
2019-02-05T00:29:51.924Z,-1.30
2019-02-05T00:32:22.725Z,-1.30
2019-02-05T00:34:54.892Z,-1.40
2019-02-05T00:37:27.329Z,-1.40
2019-02-05T00:39:57.900Z,-1.40
2019-02-05T00:42:28.693Z,-1.40
2019-02-05T00:44:59.218Z,-1.40
2019-02-05T00:47:32.240Z,-1.50
2019-02-05T00:50:02.032Z,-1.50
2019-02-05T00:52:33.146Z,-1.50
2019-02-05T00:55:04.608Z,-1.50
2019-02-05T00:57:35.287Z,-1.50
2019-02-05T01:00:19.655Z,-1.60
2019-02-05T01:02:50.616Z,-1.60
2019-02-05T01:05:21.462Z,-1.60
2019-02-05T01:07:52.381Z,-1.60
2019-02-05T01:10:25.140Z,-1.60
2019-02-05T01:12:56.252Z,-1.60
2019-02-05T01:15:29.468Z,-1.50
2019-02-05T01:18:02.045Z,-1.50
2019-02-05T01:20:32.880Z,-1.50
2019-02-05T01:23:03.459Z,-1.50
2019-02-05T01:25:34.824Z,-1.50
2019-02-05T01:28:05.522Z,-1.50
2019-02-05T01:30:36.303Z,-1.50
2019-02-05T01:33:06.939Z,-1.60
2019-02-05T01:35:37.533Z,-1.60
2019-02-05T01:38:08.432Z,-1.60
2019-02-05T01:40:38.983Z,-1.70
2019-02-05T01:43:09.534Z,-1.70
2019-02-05T01:45:40.068Z,-1.80
2019-02-05T01:48:10.905Z,-1.80
2019-02-05T01:50:41.399Z,-1.90
2019-02-05T01:53:11.903Z,-1.90
2019-02-05T01:55:42.506Z,-1.90
2019-02-05T01:58:13.169Z,-2.00
2019-02-05T02:00:43.945Z,-2.00
2019-02-05T02:03:14.455Z,-2.00
2019-02-05T02:05:45.301Z,-2.00
2019-02-05T02:08:16.023Z,-2.10
2019-02-05T02:10:46.867Z,-2.20
2019-02-05T02:13:17.369Z,-2.30
2019-02-05T02:15:48.082Z,-2.30
2019-02-05T02:18:19.053Z,-2.40
2019-02-05T02:20:49.548Z,-2.40
2019-02-05T02:23:21.354Z,-2.50
2019-02-05T02:25:51.941Z,-2.50
2019-02-05T02:28:22.890Z,-2.60
2019-02-05T02:30:53.409Z,-2.50
2019-02-05T02:33:24.267Z,-2.60
2019-02-05T02:35:55.042Z,-2.60
2019-02-05T02:38:25.603Z,-2.60
2019-02-05T02:40:56.186Z,-2.60
2019-02-05T02:43:27.258Z,-2.60
2019-02-05T02:45:58.173Z,-2.70
2019-02-05T02:48:28.692Z,-2.70
2019-02-05T02:50:59.180Z,-2.70
2019-02-05T02:53:29.674Z,-2.70
2019-02-05T02:56:00.198Z,-2.70
2019-02-05T02:58:31.392Z,-2.70
2019-02-05T03:01:02.322Z,-2.80
2019-02-05T03:03:33.121Z,-2.80
2019-02-05T03:06:03.710Z,-2.90
2019-02-05T03:08:34.321Z,-2.90
2019-02-05T03:11:05.508Z,-2.90
2019-02-05T03:13:36.713Z,-2.90
2019-02-05T03:16:07.184Z,-2.90
2019-02-05T03:18:37.687Z,-2.90
2019-02-05T03:21:08.378Z,-3.00
2019-02-05T03:23:39.104Z,-3.00
2019-02-05T03:26:09.611Z,-3.10
2019-02-05T03:28:40.132Z,-3.10
2019-02-05T03:31:10.662Z,-3.00
2019-02-05T03:33:41.314Z,-3.10
2019-02-05T03:36:12.071Z,-3.00
2019-02-05T03:38:42.590Z,-3.10
2019-02-05T03:41:13.288Z,-3.10
2019-02-05T03:43:44.419Z,-3.20
2019-02-05T03:46:16.918Z,-3.20
2019-02-05T03:48:49.890Z,-3.30
2019-02-05T03:52:08.864Z,-3.30
2019-02-05T03:55:35.682Z,-3.30
2019-02-05T03:58:53.955Z,-3.40
2019-02-05T04:02:05.553Z,-3.40
2019-02-05T04:05:34.063Z,-3.50
2019-02-05T04:09:00.242Z,-3.50
2019-02-05T04:12:28.785Z,-3.50
2019-02-05T04:15:45.298Z,-3.50
2019-02-05T04:19:00.492Z,-3.40
2019-02-05T04:22:44.629Z,-3.40
2019-02-05T04:25:59.191Z,-3.50
2019-02-05T04:29:41.737Z,-3.60
2019-02-05T04:33:11.641Z,-3.60
2019-02-05T04:36:40.867Z,-3.60
2019-02-05T04:40:20.771Z,-3.70
2019-02-05T04:43:51.794Z,-3.70
2019-02-05T04:47:13.843Z,-3.70
2019-02-05T04:51:05.678Z,-3.80
2019-02-05T04:54:21.585Z,-3.80
2019-02-05T04:57:41.469Z,-3.90
2019-02-05T05:01:30.525Z,-3.90
2019-02-05T05:04:49.512Z,-3.90
2019-02-05T05:08:14.602Z,-3.90
2019-02-05T05:10:45.488Z,-3.90
2019-02-05T05:13:16.099Z,-3.90
2019-02-05T05:15:46.661Z,-3.80
2019-02-05T05:18:17.416Z,-3.80
2019-02-05T05:20:48.850Z,-3.90
2019-02-05T05:23:19.843Z,-3.90
2019-02-05T05:25:50.414Z,-3.90
2019-02-05T05:28:22.216Z,-3.80
2019-02-05T05:30:53.457Z,-3.90
2019-02-05T05:33:24.469Z,-3.90
2019-02-05T05:35:55.373Z,-3.90
2019-02-05T05:38:26.141Z,-3.90
2019-02-05T05:40:56.643Z,-4.00
2019-02-05T05:43:27.695Z,-4.00
2019-02-05T05:45:58.801Z,-4.00
2019-02-05T05:48:29.570Z,-4.00
2019-02-05T05:51:00.469Z,-4.10
2019-02-05T05:53:31.095Z,-4.20
2019-02-05T05:56:01.637Z,-4.20
2019-02-05T05:58:32.693Z,-4.20
2019-02-05T06:01:03.630Z,-4.20
2019-02-05T06:03:34.489Z,-4.20
2019-02-05T06:06:05.392Z,-4.30
2019-02-05T06:08:36.079Z,-4.30
2019-02-05T06:11:06.750Z,-4.30
2019-02-05T06:13:37.768Z,-4.30
2019-02-05T06:16:08.647Z,-4.30
2019-02-05T06:18:39.509Z,-4.30
2019-02-05T06:21:10.037Z,-4.30
2019-02-05T06:23:40.669Z,-4.40
2019-02-05T06:26:11.453Z,-4.50
2019-02-05T06:28:42.505Z,-4.50
2019-02-05T06:31:13.111Z,-4.50
2019-02-05T06:33:46.652Z,-4.50
2019-02-05T06:36:17.419Z,-4.50
2019-02-05T06:38:47.962Z,-4.50
2019-02-05T06:41:18.569Z,-4.60
2019-02-05T06:43:49.206Z,-4.50
2019-02-05T06:46:19.739Z,-4.50
2019-02-05T06:48:50.252Z,-4.60
2019-02-05T06:51:22.160Z,-4.60
2019-02-05T06:53:52.688Z,-4.60
2019-02-05T06:56:23.647Z,-4.60
2019-02-05T06:58:54.166Z,-4.60
2019-02-05T07:01:25.016Z,-4.60
2019-02-05T07:03:55.866Z,-4.60
2019-02-05T07:06:26.657Z,-4.60
2019-02-05T07:08:57.136Z,-4.60
2019-02-05T07:11:27.657Z,-4.60
2019-02-05T07:13:58.340Z,-4.50
2019-02-05T07:16:29.199Z,-4.50
2019-02-05T07:18:59.928Z,-4.40
2019-02-05T07:21:30.715Z,-4.40
2019-02-05T07:24:01.540Z,-4.30
2019-02-05T07:26:32.073Z,-4.20
2019-02-05T07:29:02.661Z,-4.10
2019-02-05T07:31:33.457Z,-4.00
2019-02-05T07:34:03.966Z,-3.90
2019-02-05T07:36:34.743Z,-3.80
2019-02-05T07:39:08.623Z,-3.70
2019-02-05T07:41:39.507Z,-3.70
2019-02-05T07:44:09.981Z,-3.60
2019-02-05T07:46:40.687Z,-3.50
2019-02-05T07:49:11.229Z,-3.40
2019-02-05T07:51:41.813Z,-3.40
2019-02-05T07:54:12.344Z,-3.30
2019-02-05T07:56:42.818Z,-3.20
2019-02-05T07:59:13.298Z,-3.10
2019-02-05T08:01:43.814Z,-3.00
2019-02-05T08:04:14.295Z,-2.90
2019-02-05T08:06:44.799Z,-2.90
2019-02-05T08:09:15.274Z,-2.90
2019-02-05T08:11:45.786Z,-2.70
2019-02-05T08:14:16.337Z,-2.60
2019-02-05T08:16:48.031Z,-2.50
2019-02-05T08:19:19.390Z,-2.40
2019-02-05T08:21:49.957Z,-2.20
2019-02-05T08:24:21.956Z,-2.10
2019-02-05T08:26:52.767Z,-1.90
2019-02-05T08:29:23.353Z,-1.80
2019-02-05T08:31:53.829Z,-1.70
2019-02-05T08:34:24.339Z,-1.70
2019-02-05T08:36:54.943Z,-1.60
2019-02-05T08:39:25.772Z,-1.40
2019-02-05T08:41:56.764Z,-1.30
2019-02-05T08:44:27.274Z,-1.00
2019-02-05T08:46:57.813Z,-0.70
2019-02-05T08:49:28.339Z,-0.60
2019-02-05T08:51:58.987Z,-0.50
2019-02-05T08:54:29.825Z,-0.40
2019-02-05T08:57:00.846Z,-0.10
2019-02-05T08:59:31.300Z,0.00
2019-02-05T09:02:01.879Z,0.00
2019-02-05T09:04:32.674Z,0.20
2019-02-05T09:07:03.187Z,0.40
2019-02-05T09:09:34.090Z,0.50
2019-02-05T09:12:04.988Z,0.90
2019-02-05T09:14:36.141Z,1.00
2019-02-05T09:17:06.911Z,1.00
2019-02-05T09:19:37.482Z,1.00
2019-02-05T09:22:08.151Z,1.20
2019-02-05T09:24:38.980Z,1.30
2019-02-05T09:27:10.001Z,1.40
2019-02-05T09:29:40.558Z,1.60
2019-02-05T09:32:11.140Z,2.10
2019-02-05T09:34:41.958Z,2.20
2019-02-05T09:37:12.518Z,2.20
2019-02-05T09:39:43.129Z,2.10
2019-02-05T09:42:14.019Z,2.00
2019-02-05T09:44:44.509Z,1.70
2019-02-05T09:47:15.156Z,2.00
2019-02-05T09:49:46.034Z,2.20
2019-02-05T09:52:16.522Z,2.40
2019-02-05T09:54:47.225Z,2.80
2019-02-05T09:57:18.119Z,2.90
2019-02-05T09:59:48.912Z,2.60
2019-02-05T10:02:19.577Z,3.10
2019-02-05T10:04:50.061Z,3.20
2019-02-05T10:07:21.716Z,3.10
2019-02-05T10:09:52.481Z,3.20
2019-02-05T10:12:23.373Z,3.20
2019-02-05T10:14:54.139Z,3.30
2019-02-05T10:17:24.667Z,3.60
2019-02-05T10:19:55.213Z,3.50
2019-02-05T10:22:26.361Z,3.40
2019-02-05T10:24:57.317Z,3.70
2019-02-05T10:27:28.188Z,4.10
2019-02-05T10:29:59.620Z,4.40
2019-02-05T10:32:30.376Z,4.70
2019-02-05T10:35:02.755Z,4.80
2019-02-05T10:37:33.614Z,5.20
2019-02-05T10:40:04.575Z,5.40
2019-02-05T10:42:35.462Z,5.20
2019-02-05T10:45:08.559Z,5.40
2019-02-05T10:47:40.921Z,4.80
2019-02-05T10:50:13.761Z,4.90
2019-02-05T10:52:44.885Z,5.00
2019-02-05T10:55:17.025Z,5.30
2019-02-05T10:57:47.779Z,5.70
2019-02-05T11:00:25.868Z,5.80
2019-02-05T11:02:59.239Z,5.80
2019-02-05T11:05:31.821Z,6.10
2019-02-05T11:08:02.626Z,5.90
2019-02-05T11:10:33.491Z,6.00
2019-02-05T11:13:05.063Z,5.90
2019-02-05T11:15:35.561Z,6.10
2019-02-05T11:18:09.435Z,5.80
2019-02-05T11:20:40.436Z,5.90
2019-02-05T11:23:11.254Z,6.10
2019-02-05T11:25:42.173Z,5.60
2019-02-05T11:28:12.781Z,5.40
2019-02-05T11:30:45.779Z,5.50
2019-02-05T11:33:16.877Z,5.90
2019-02-05T11:35:47.485Z,6.20
2019-02-05T11:38:18.236Z,6.00
2019-02-05T11:40:49.203Z,6.20
2019-02-05T11:43:19.713Z,6.20
2019-02-05T11:45:50.508Z,6.20
2019-02-05T11:48:22.477Z,6.30
2019-02-05T11:50:53.251Z,6.40
2019-02-05T11:53:24.318Z,6.50
2019-02-05T11:55:54.888Z,6.50
2019-02-05T11:58:25.728Z,6.40
2019-02-05T12:01:00.643Z,6.10
2019-02-05T12:03:31.591Z,5.80
2019-02-05T12:06:02.365Z,5.70
2019-02-05T12:08:32.871Z,5.70
2019-02-05T12:11:03.417Z,5.80
2019-02-05T12:13:34.517Z,6.00
2019-02-05T12:16:05.713Z,6.00
2019-02-05T12:18:36.491Z,6.20
2019-02-05T12:21:07.348Z,5.80
2019-02-05T12:23:38.526Z,5.70
2019-02-05T12:26:09.446Z,5.80
2019-02-05T12:28:39.954Z,5.60
2019-02-05T12:31:10.759Z,5.50
2019-02-05T12:33:41.544Z,5.60
2019-02-05T12:36:12.466Z,5.90
2019-02-05T12:38:43.314Z,5.80
2019-02-05T12:41:13.872Z,5.80
2019-02-05T12:43:44.355Z,5.80
2019-02-05T12:46:14.937Z,5.80
2019-02-05T12:48:45.556Z,5.70
2019-02-05T12:51:16.484Z,5.70
2019-02-05T12:53:47.012Z,5.70
2019-02-05T12:56:17.594Z,5.30
2019-02-05T12:58:48.410Z,5.40
2019-02-05T13:01:18.948Z,5.40
2019-02-05T13:03:49.581Z,5.40
2019-02-05T13:06:20.396Z,5.50
2019-02-05T13:08:50.960Z,5.50
2019-02-05T13:11:22.827Z,5.30
2019-02-05T13:13:53.490Z,5.20
2019-02-05T13:16:24.277Z,5.20
2019-02-05T13:18:54.841Z,5.30
2019-02-05T13:21:25.619Z,5.30
2019-02-05T13:23:56.461Z,5.20
2019-02-05T13:26:27.461Z,5.30
2019-02-05T13:28:57.959Z,5.20
2019-02-05T13:31:28.854Z,5.10
2019-02-05T13:33:59.569Z,4.80
2019-02-05T13:36:30.433Z,4.60
2019-02-05T13:39:01.508Z,4.60
2019-02-05T13:41:32.629Z,4.50
2019-02-05T13:44:03.190Z,4.40
2019-02-05T13:46:34.021Z,4.50
2019-02-05T13:49:04.990Z,4.50
2019-02-05T13:51:35.786Z,4.40
2019-02-05T13:54:06.976Z,4.40
2019-02-05T13:56:37.791Z,4.40
2019-02-05T13:59:08.597Z,4.30
2019-02-05T14:01:39.410Z,4.30
2019-02-05T14:04:09.959Z,4.10
2019-02-05T14:06:40.784Z,4.10
2019-02-05T14:09:14.237Z,4.00
2019-02-05T14:11:44.777Z,4.10
2019-02-05T14:14:15.656Z,4.00
2019-02-05T14:16:46.162Z,4.00
2019-02-05T14:19:16.972Z,4.00
2019-02-05T14:21:47.776Z,4.00
2019-02-05T14:24:18.639Z,4.00
2019-02-05T14:26:49.150Z,3.90
2019-02-05T14:29:19.795Z,3.80
2019-02-05T14:31:50.724Z,3.70
2019-02-05T14:34:23.040Z,3.80
2019-02-05T14:36:53.911Z,3.70
2019-02-05T14:39:24.761Z,3.70
2019-02-05T14:41:55.567Z,3.70
2019-02-05T14:44:26.639Z,3.70
2019-02-05T14:46:57.235Z,3.60
2019-02-05T14:49:28.044Z,3.60
2019-02-05T14:51:58.867Z,3.50
2019-02-05T14:54:29.641Z,3.40
2019-02-05T14:57:00.205Z,3.30
2019-02-05T14:59:31.019Z,3.20
2019-02-05T15:02:01.867Z,3.20
2019-02-05T15:04:33.026Z,3.20
2019-02-05T15:07:06.191Z,3.20
2019-02-05T15:09:39.919Z,3.10
2019-02-05T15:12:10.724Z,3.00
2019-02-05T15:14:41.274Z,3.10
2019-02-05T15:17:11.911Z,3.10
2019-02-05T15:19:42.738Z,3.10
2019-02-05T15:22:13.535Z,3.00
2019-02-05T15:24:45.216Z,2.90
2019-02-05T15:27:15.903Z,2.90
2019-02-05T15:29:46.738Z,2.90
2019-02-05T15:32:36.214Z,2.80
2019-02-05T15:35:07.777Z,2.80
2019-02-05T15:37:38.306Z,2.80
2019-02-05T15:40:10.506Z,2.80
2019-02-05T15:42:41.400Z,2.80
2019-02-05T15:45:12.757Z,2.70
2019-02-05T15:47:43.826Z,2.70
2019-02-05T15:50:14.588Z,2.70
2019-02-05T15:52:45.161Z,2.60
2019-02-05T15:55:17.644Z,2.50
2019-02-05T15:57:48.367Z,2.30
2019-02-05T16:00:19.392Z,2.20
2019-02-05T16:02:49.934Z,2.10
2019-02-05T16:05:20.826Z,2.20
2019-02-05T16:07:51.408Z,2.10
2019-02-05T16:10:23.215Z,2.10
2019-02-05T16:12:53.959Z,2.10
2019-02-05T16:15:24.833Z,2.10
2019-02-05T16:17:55.400Z,2.00
2019-02-05T16:20:26.234Z,1.90
2019-02-05T16:22:56.868Z,1.80
2019-02-05T16:25:27.397Z,1.60
2019-02-05T16:27:58.103Z,1.60
2019-02-05T16:30:29.106Z,1.60
2019-02-05T16:32:59.892Z,1.50
2019-02-05T16:35:30.730Z,1.50
2019-02-05T16:38:01.319Z,1.50
2019-02-05T16:40:32.319Z,1.40
2019-02-05T16:43:03.123Z,1.30
2019-02-05T16:45:34.216Z,1.30
2019-02-05T16:48:05.412Z,1.20
2019-02-05T16:50:39.953Z,1.20
2019-02-05T16:53:10.840Z,1.10
2019-02-05T16:55:41.347Z,1.10
2019-02-05T16:58:12.125Z,1.00
2019-02-05T17:00:42.818Z,1.00
2019-02-05T17:03:13.389Z,0.90
2019-02-05T17:05:44.259Z,0.80
2019-02-05T17:08:15.023Z,0.80
2019-02-05T17:10:45.595Z,0.70
2019-02-05T17:13:16.235Z,0.60
2019-02-05T17:15:47.121Z,0.60
2019-02-05T17:18:23.619Z,0.60
2019-02-05T17:20:50.436Z,0.50
2019-02-05T17:23:20.978Z,0.50
2019-02-05T17:25:51.515Z,0.50
2019-02-05T17:28:23.548Z,0.40
2019-02-05T17:30:54.080Z,0.40
2019-02-05T17:33:24.593Z,0.20
2019-02-05T17:35:55.353Z,0.20
2019-02-05T17:38:26.317Z,0.20
2019-02-05T17:40:57.087Z,0.10
2019-02-05T17:43:27.776Z,0.00
2019-02-05T17:45:58.460Z,-0.10
2019-02-05T17:48:29.300Z,-0.10
2019-02-05T17:51:00.129Z,0.00
2019-02-05T17:53:30.732Z,0.00
2019-02-05T17:56:01.332Z,-0.10
2019-02-05T17:58:32.183Z,-0.10
2019-02-05T18:01:15.828Z,-0.10
2019-02-05T18:03:46.439Z,-0.30
2019-02-05T18:06:17.318Z,-0.30
2019-02-05T18:08:48.158Z,-0.30
2019-02-05T18:11:18.763Z,-0.40
2019-02-05T18:13:49.467Z,-0.40
2019-02-05T18:16:21.164Z,-0.40
2019-02-05T18:18:52.033Z,-0.40
2019-02-05T18:21:23.438Z,-0.50
2019-02-05T18:23:54.446Z,-0.50
2019-02-05T18:26:25.334Z,-0.50
2019-02-05T18:28:56.227Z,-0.60
2019-02-05T18:31:27.162Z,-0.70
2019-02-05T18:33:57.830Z,-0.70
2019-02-05T18:36:28.716Z,-0.70
2019-02-05T18:38:59.607Z,-0.70
2019-02-05T18:41:30.550Z,-0.80
2019-02-05T18:44:01.139Z,-0.80
2019-02-05T18:46:31.681Z,-0.80
2019-02-05T18:49:05.094Z,-0.90
2019-02-05T18:51:34.583Z,-0.90
2019-02-05T18:54:05.571Z,-0.90
2019-02-05T18:56:36.474Z,-0.90
2019-02-05T18:59:07.205Z,-0.90
2019-02-05T19:01:37.835Z,-0.90
2019-02-05T19:04:08.482Z,-0.90
2019-02-05T19:06:39.415Z,-0.90
2019-02-05T19:09:14.797Z,-0.90
2019-02-05T19:11:45.705Z,-0.90
2019-02-05T19:14:16.360Z,-1.00
2019-02-05T19:16:47.325Z,-1.00
2019-02-05T19:19:18.342Z,-1.00
2019-02-05T19:21:48.896Z,-1.00
2019-02-05T19:24:36.917Z,-1.00
2019-02-05T19:27:07.742Z,-1.10
2019-02-05T19:29:38.761Z,-1.10
2019-02-05T19:32:09.562Z,-1.10
2019-02-05T19:34:40.692Z,-1.10
2019-02-05T19:37:11.489Z,-1.10
2019-02-05T19:39:42.035Z,-1.10
2019-02-05T19:42:12.973Z,-1.20
2019-02-05T19:44:48.490Z,-1.20
2019-02-05T19:47:23.477Z,-1.20
2019-02-05T19:49:56.866Z,-1.30
2019-02-05T19:52:27.904Z,-1.30
2019-02-05T19:54:58.598Z,-1.40
2019-02-05T19:57:29.955Z,-1.40
2019-02-05T20:00:00.770Z,-1.40
2019-02-05T20:02:31.399Z,-1.40
2019-02-05T20:05:02.242Z,-1.50
2019-02-05T20:07:32.843Z,-1.50
2019-02-05T20:10:03.614Z,-1.60
2019-02-05T20:12:34.430Z,-1.60
2019-02-05T20:15:07.429Z,-1.60
2019-02-05T20:17:38.047Z,-1.60
2019-02-05T20:20:10.991Z,-1.60
2019-02-05T20:22:41.782Z,-1.70
2019-02-05T20:25:13.998Z,-1.70
2019-02-05T20:27:44.709Z,-1.80
2019-02-05T20:30:17.034Z,-1.80
2019-02-05T20:32:47.563Z,-1.90
2019-02-05T20:35:18.561Z,-1.90
2019-02-05T20:37:49.358Z,-1.90
2019-02-05T20:40:20.973Z,-1.90
2019-02-05T20:42:51.634Z,-1.90
2019-02-05T20:45:24.099Z,-1.90
2019-02-05T20:47:56.063Z,-1.90
2019-02-05T20:50:26.883Z,-2.00
2019-02-05T20:52:57.739Z,-2.00
2019-02-05T20:55:28.630Z,-2.00
2019-02-05T20:57:59.518Z,-2.00
2019-02-05T21:00:30.563Z,-2.10
2019-02-05T21:03:01.754Z,-2.10
2019-02-05T21:05:32.729Z,-2.10
2019-02-05T21:08:03.543Z,-2.10
2019-02-05T21:10:34.585Z,-2.10
2019-02-05T21:13:05.543Z,-2.10
2019-02-05T21:15:36.366Z,-2.20
2019-02-05T21:18:07.028Z,-2.20
2019-02-05T21:20:37.683Z,-2.20
2019-02-05T21:23:08.549Z,-2.30
2019-02-05T21:25:39.484Z,-2.30
2019-02-05T21:28:10.165Z,-2.30
2019-02-05T21:30:41.060Z,-2.30
2019-02-05T21:33:11.610Z,-2.30
2019-02-05T21:35:42.527Z,-2.30
2019-02-05T21:38:13.237Z,-2.40
2019-02-05T21:40:43.898Z,-2.30
2019-02-05T21:43:14.791Z,-2.30
2019-02-05T21:45:45.792Z,-2.30
2019-02-05T21:48:16.581Z,-2.40
2019-02-05T21:50:47.172Z,-2.40
2019-02-05T21:53:17.789Z,-2.50
2019-02-05T21:55:48.531Z,-2.50
2019-02-05T21:58:19.080Z,-2.50
2019-02-05T22:00:49.779Z,-2.50
2019-02-05T22:03:20.675Z,-2.50
2019-02-05T22:05:51.691Z,-2.50
2019-02-05T22:08:23.982Z,-2.50
2019-02-05T22:10:54.605Z,-2.60
2019-02-05T22:13:25.643Z,-2.50
2019-02-05T22:15:56.229Z,-2.60
2019-02-05T22:18:26.992Z,-2.60
2019-02-05T22:20:57.701Z,-2.60
2019-02-05T22:23:28.586Z,-2.60
2019-02-05T22:25:59.121Z,-2.60
2019-02-05T22:28:31.173Z,-2.60
2019-02-05T22:31:01.787Z,-2.60
2019-02-05T22:33:33.045Z,-2.60
2019-02-05T22:36:03.956Z,-2.60
2019-02-05T22:38:34.944Z,-2.70
2019-02-05T22:41:05.842Z,-2.70
2019-02-05T22:43:36.482Z,-2.70
2019-02-05T22:46:07.064Z,-2.70
2019-02-05T22:48:38.111Z,-2.70
2019-02-05T22:51:08.773Z,-2.70
2019-02-05T22:53:39.922Z,-2.80
2019-02-05T22:56:10.663Z,-2.80
2019-02-05T22:58:41.681Z,-2.80
2019-02-05T23:01:46.373Z,-2.80
2019-02-05T23:04:50.654Z,-2.80
2019-02-05T23:07:23.788Z,-2.90
2019-02-05T23:11:03.087Z,-2.90
2019-02-05T23:13:27.959Z,-3.00
2019-02-05T23:15:58.939Z,-3.00
2019-02-05T23:18:29.781Z,-3.00
2019-02-05T23:21:00.617Z,-3.10
2019-02-05T23:23:31.210Z,-3.10
2019-02-05T23:26:01.776Z,-3.20
2019-02-05T23:28:33.014Z,-3.10
2019-02-05T23:31:04.089Z,-3.10
2019-02-05T23:33:35.028Z,-3.10
2019-02-05T23:36:05.864Z,-3.20
2019-02-05T23:38:36.733Z,-3.10
2019-02-05T23:41:07.339Z,-3.10
2019-02-05T23:43:38.093Z,-3.10
2019-02-05T23:46:08.869Z,-3.20
2019-02-05T23:48:39.692Z,-3.20
2019-02-05T23:51:10.241Z,-3.20
2019-02-05T23:53:40.776Z,-3.20
2019-02-05T23:56:11.758Z,-3.20
2019-02-05T23:58:42.263Z,-3.30
